Airfield :
LOGIN :

Register | Disclaimer

   EN    FR    IT 

 










Legend :    VFR   Marginal VFR   IFR   Intensive IFR   Very Intensive IFR
Visi :
Ceiling :
>= 8 km
>= 3000ft
5 to 8 km
1000 to 3000 ft
1500m to 5 km
500 to 1000 ft
800 to 1500m
200 to 500 ft
< 800m
< 200 ft
Symbols :   Thunderstorms  Fog  Heavy snow  Heavy precipitations  Wind > 20 kt
SIGMETs :     Misc.  Thunderstorms  Icing  Turbulence  Mountain Waves  Volcanic Ashes







- Airport Elevation : 129 ft
- IATA code : ZCN


ETHC - Celle

CURRENT METAR :
  • 201820Z 16005KT 5000 -RA BR SCT010 BKN025 03/02 Q1012 WHT

EXPIRED METARs :
  • 201720Z 16004KT 9999 -RA FEW009 BKN022 03/02 Q1012 WHT FCST CANCEL
  • 201620Z 19004KT 9999 -RA FEW010 BKN024 03/02 Q1013 WHT WHT BECMG GRN

TAF AMD TAF ETHC
Valid from the 20 at 15:00 until the 21 at 00:00 UTC


201702Z 2015/2024 24010KT 9999 -RA SCT010 BKN015
BECMG 2015/2017 20006KT 5000 -RADZ SCT008 BKN012
TEMPO 2018/2024 17004KT 3000 DZRA BKN005 OVC010 CANCEL 1720
No reported NOTAMs for that airfield.



MET'MAP, your aeronautical weather chart ! - Copyright ORBIFLY December 2007 - Disclaimer

ORBIFLY MET'MAP TEAM :

Programming & Development : Alexandra Zaïnal
Concept & Development : Baudouin d'Aumeries
Co-Development & Prog : Marc-Olivier Méhu
Technical & hardware support : Manuel Goepfert

Contact : metmap@orbifly.com




SOURCES & CREDITS :

   NOAA